Airport View

Enter AWOS ICAO identifier for current METAR.

ex. KFNL

KLUA 101535Z AUTO 00000KT 10SM CLR 30/18 A3011 RMK AO2

10 Aug 2020 15:37

Frequency: 118.275

Phone: 540-743-1148

Other Area AWOS: K8W2 - KFRR - KVBW - KSHD

TAF KCHO 101136Z 1012/1112 VRB03KT 4SM BR SKC FM101300 00000KT P6SM SCT250 FM110600 00000KT 4SM BR FEW250 FM110900 00000KT 2SM BR SCT250